Main page
METAR-TAF:

METAR-TAF

Airports :

Cape Town, South Africa

Cape Town International Airport

latitude: 33-59S, longitude: 018-36E, elevation: 42 m

Current weather observation

The report was made 25 minutes ago, at 17:00 UTC
Wind 3 kt from the East
Temperature 11°C
Humidity 71%
Pressure 1022 hPa
Visibility 10 km or more
Few clouds at a height of 3500 ft

METAR: FACT 281700Z 10003KT 9999 FEW035 11/06 Q1022 NOSIG

Time: 19:25 (17:25 UTC)

Forecast

The report was made 7 hours and 25 minutes ago, at 10:00 UTC
Forecast valid from 28 at 12 UTC to 29 at 18 UTC
Wind 10 kt from the Southwest
Visibility 10 km or more
Few clouds at a height of 2500 ft
Broken clouds at a height of 3500 ft
From 28 at 1800 UTC
Wind 3 kt from variable directions
Visibility 10 km or more
Few clouds at a height of 3500 ft
Becoming
from 29 at 07 UTC to 29 at 09 UTC
Wind 14 kt from the North/Northwest

TAF: FACT 281000Z 2812/2918 23010KT 9999 FEW025 BKN035 FM281800 VRB03KT 9999 FEW035 BECMG 2907/2909 34014KT TX15/2812ZTN05/2906Z

Weather observations and forecasts of more than 4000 airports (METAR and TAF reports).

The available stations are represented by yellow and red dots on the map.

Hover mouse over dot to see the name of the station.

Then click to see weather observations and forecasts.

To change the map : click on the green buttons with a black cross to zoom in, on the green button with a dash to zoom out, or on the green arrows for adjacent maps.


METAR-TAF: